Terminal Aerodrome Forecast
Issued by NWS

Home | Current Version | Previous Version | Graphics & Text | Print | Product List | Glossary On
Versions: 1 2 3 4 5 6 7 8 9 10 11 12 13 14 15 16 17 18 19 20 21 22 23 24 25 26 27 28 29 30 31 32 33 34 35 36 37 38 39 40 41 42 43 44 45 46 47
873
FTUS43 KABR 241640 AAC
TAFATY
TAF AMD
KATY 241640Z 2417/2512 14006KT 1/4SM SN FZFG VV011
      TEMPO 2419/2422 1SM -SN OVC010
     FM242200 14008KT 3SM -SN OVC011
     FM250100 15007KT P6SM OVC015
     FM250300 25009KT P6SM BKN025
     FM250900 26011KT P6SM BKN250=

USA.gov is the U.S. government's official web portal to all federal, state and local government web resources and services.